Time;durP1;ratioP1;P1;durP2;ratioP2;P2;SDS_P1;SDS_P2;PMS_P1;PMS_P2;Temp;Humidity;BMP_temperature;BMP_pressure;BME280_temperature;BME280_humidity;BME280_pressure;Samples;Min_cycle;Max_cycle;Signal;HPM_P1;HPM_P2
2021/10/05 00:00:38;;;;;;;55.83;34.05;;;;;;;13.15;69.06;98636.13;4952999;29;20037;-73
2021/10/05 00:03:05;;;;;;;60.90;33.95;;;;;;;13.16;69.39;98632.25;4952701;29;20023;-74
2021/10/05 00:05:31;;;;;;;57.33;34.38;;;;;;;13.16;69.46;98636.94;4952809;29;20027;-71
2021/10/05 00:07:56;;;;;;;57.00;34.55;;;;;;;13.16;69.29;98635.00;4952960;29;20431;-72
2021/10/05 00:10:22;;;;;;;59.67;35.00;;;;;;;13.16;69.44;98632.25;4952410;29;20039;-71
2021/10/05 00:12:47;;;;;;;59.80;34.08;;;;;;;13.18;69.39;98634.69;4952697;29;20062;-72
2021/10/05 00:15:13;;;;;;;54.60;33.10;;;;;;;13.18;69.56;98634.69;4952407;29;20081;-72
2021/10/05 00:17:39;;;;;;;53.13;32.30;;;;;;;13.17;69.54;98627.56;4952781;29;20041;-71
2021/10/05 00:20:06;;;;;;;54.97;32.15;;;;;;;13.14;69.58;98622.66;4949889;29;20028;-73
2021/10/05 00:22:32;;;;;;;55.90;31.90;;;;;;;13.11;69.56;98626.84;4951922;29;20042;-72
2021/10/05 00:24:57;;;;;;;54.13;31.77;;;;;;;13.08;69.25;98622.78;4952726;29;20396;-72
2021/10/05 00:27:23;;;;;;;49.05;30.20;;;;;;;13.06;69.39;98622.28;4952495;28;20027;-72
2021/10/05 00:29:48;;;;;;;56.40;33.35;;;;;;;13.06;69.71;98624.19;4951671;29;20563;-71
2021/10/05 00:32:14;;;;;;;55.05;32.95;;;;;;;13.05;69.67;98614.31;4934883;29;20042;-71
2021/10/05 00:34:39;;;;;;;56.22;32.53;;;;;;;13.04;69.98;98613.50;4951935;29;20162;-72
2021/10/05 00:37:05;;;;;;;54.33;32.97;;;;;;;13.04;69.95;98612.72;4951494;29;20042;-72
2021/10/05 00:39:30;;;;;;;56.13;33.50;;;;;;;13.04;69.87;98605.25;4951709;29;20752;-71
2021/10/05 00:41:55;;;;;;;59.40;35.03;;;;;;;13.04;70.00;98604.44;4951863;29;20035;-72
2021/10/05 00:44:36;;;;;;;57.70;35.17;;;;;;;13.01;69.94;98603.09;4952681;29;20042;-72
2021/10/05 00:47:06;;;;;;;54.60;34.45;;;;;;;12.99;69.81;98602.59;4952663;29;20046;-71
2021/10/05 00:49:32;;;;;;;54.13;33.33;;;;;;;12.98;70.04;98595.47;4935782;29;20035;-71
2021/10/05 00:51:59;;;;;;;55.53;33.80;;;;;;;12.96;70.00;98586.69;4953539;29;20027;-71
2021/10/05 00:54:25;;;;;;;55.72;33.70;;;;;;;12.95;70.19;98585.06;4952895;29;20025;-71
2021/10/05 00:56:51;;;;;;;56.67;33.63;;;;;;;12.92;70.29;98582.94;4953124;29;20102;-72
2021/10/05 00:59:17;;;;;;;57.20;32.17;;;;;;;12.91;70.15;98582.13;4953272;29;20118;-72
2021/10/05 01:01:42;;;;;;;58.83;35.40;;;;;;;12.91;70.39;98581.31;4935832;29;20064;-71
2021/10/05 01:04:08;;;;;;;61.63;35.00;;;;;;;12.89;70.12;98587.13;4953148;29;20120;-72
2021/10/05 01:06:33;;;;;;;52.15;33.10;;;;;;;12.88;70.49;98574.50;4952767;29;20034;-71
2021/10/05 01:08:59;;;;;;;57.90;33.78;;;;;;;12.87;70.29;98583.88;4952820;29;20047;-72
2021/10/05 01:11:25;;;;;;;55.72;33.45;;;;;;;12.85;70.34;98580.59;4953190;29;20019;-71
2021/10/05 01:13:51;;;;;;;52.67;32.22;;;;;;;12.83;70.52;98580.09;4952973;29;20031;-71
2021/10/05 01:16:19;;;;;;;53.95;32.35;;;;;;;12.83;70.67;98577.34;4953135;29;20031;-72
2021/10/05 01:18:46;;;;;;;56.55;33.30;;;;;;;12.84;70.61;98572.66;4953341;29;20349;-72
2021/10/05 01:21:13;;;;;;;52.67;31.25;;;;;;;12.82;70.95;98575.72;4952898;29;20061;-71
2021/10/05 01:23:39;;;;;;;53.28;33.42;;;;;;;12.83;70.81;98574.59;4951408;29;20048;-72
2021/10/05 01:26:05;;;;;;;58.60;34.85;;;;;;;12.89;71.12;98569.78;4935407;29;20468;-72
2021/10/05 01:28:31;;;;;;;60.28;34.88;;;;;;;12.98;70.77;98576.19;4952626;29;20090;-71
2021/10/05 01:30:58;;;;;;;57.33;34.78;;;;;;;13.02;71.42;98576.41;4952609;29;20027;-71
2021/10/05 01:33:27;;;;;;;58.90;35.33;;;;;;;13.05;70.92;98568.34;4952749;29;20709;-71
2021/10/05 01:35:53;;;;;;;;;;;;;;;13.05;70.71;98573.84;4953585;29;20042;-71
2021/10/05 01:38:19;;;;;;;59.42;33.75;;;;;;;13.02;70.92;98566.19;4952471;29;20013;-71
2021/10/05 01:40:44;;;;;;;56.60;32.83;;;;;;;12.99;70.90;98564.06;4951949;28;20411;-71
2021/10/05 01:43:10;;;;;;;56.15;33.05;;;;;;;12.95;70.71;98550.13;4935650;29;20106;-71
2021/10/05 01:45:39;;;;;;;58.67;32.78;;;;;;;12.92;70.95;98564.50;4952683;29;20106;-71
2021/10/05 01:48:07;;;;;;;54.37;32.60;;;;;;;12.87;70.93;98556.34;4952535;29;20030;-72
2021/10/05 01:50:32;;;;;;;52.13;32.17;;;;;;;12.84;71.19;98556.97;4952571;29;20155;-72
2021/10/05 01:52:58;;;;;;;55.63;30.92;;;;;;;12.79;71.13;98546.88;4952820;29;20501;-71
2021/10/05 01:55:24;;;;;;;52.05;32.53;;;;;;;12.75;71.01;98542.28;4952461;29;20027;-71
2021/10/05 01:57:49;;;;;;;48.03;29.05;;;;;;;12.71;70.97;98553.13;4945917;29;20078;-71
2021/10/05 02:00:16;;;;;;;51.75;30.92;;;;;;;12.68;71.05;98547.41;4950198;29;20035;-72
2021/10/05 02:02:41;;;;;;;52.75;32.83;;;;;;;12.62;70.68;98553.03;4952119;29;20759;-71
2021/10/05 02:05:07;;;;;;;48.65;30.50;;;;;;;12.58;71.37;98543.75;4951095;29;20031;-71
2021/10/05 02:07:35;;;;;;;53.20;31.23;;;;;;;12.55;71.28;98540.78;4935126;29;20043;-72
2021/10/05 02:10:01;;;;;;;49.47;30.63;;;;;;;12.53;71.08;98535.59;4952170;29;20047;-72
2021/10/05 02:12:27;;;;;;;50.33;29.80;;;;;;;12.51;71.48;98533.16;4952015;29;20078;-72
2021/10/05 02:14:53;;;;;;;51.90;30.58;;;;;;;12.52;71.50;98536.72;4951985;29;20026;-72
2021/10/05 02:17:19;;;;;;;47.28;28.75;;;;;;;12.53;71.52;98538.34;4952239;29;20392;-72
2021/10/05 02:19:45;;;;;;;44.28;28.38;;;;;;;12.50;71.44;98537.03;4952237;29;20031;-72
2021/10/05 02:22:11;;;;;;;43.55;27.50;;;;;;;12.48;71.53;98533.75;4915292;29;20411;-71
2021/10/05 02:24:41;;;;;;;46.88;28.20;;;;;;;12.48;71.47;98532.97;4934721;29;20026;-71
2021/10/05 02:27:07;;;;;;;46.65;30.27;;;;;;;12.46;71.21;98526.94;4951281;29;20023;-71
2021/10/05 02:29:36;;;;;;;49.63;29.55;;;;;;;12.46;71.46;98524.19;4952119;29;20031;-72
2021/10/05 02:32:06;;;;;;;48.72;30.42;;;;;;;12.48;71.81;98525.50;4952209;29;20034;-72
2021/10/05 02:34:32;;;;;;;48.90;30.80;;;;;;;12.50;71.52;98523.28;4952444;29;20073;-71
2021/10/05 02:36:57;;;;;;;51.47;31.33;;;;;;;12.51;71.99;98524.91;4952379;29;20375;-72
2021/10/05 02:39:23;;;;;;;51.67;33.38;;;;;;;12.53;72.29;98513.59;4952533;29;20523;-72
2021/10/05 02:41:49;;;;;;;45.22;29.73;;;;;;;12.51;71.91;98524.91;4953261;29;20023;-71
2021/10/05 02:44:14;;;;;;;46.90;29.02;;;;;;;12.51;71.89;98522.16;4952212;29;20027;-71
2021/10/05 02:46:40;;;;;;;49.30;29.38;;;;;;;12.49;71.98;98515.34;4953125;29;20063;-71
2021/10/05 02:49:05;;;;;;;42.03;27.85;;;;;;;12.46;72.67;98514.00;4952855;29;20034;-71
2021/10/05 02:51:32;;;;;;;43.95;27.70;;;;;;;12.43;71.99;98508.31;4953960;28;20506;-71
2021/10/05 02:53:58;;;;;;;46.08;28.52;;;;;;;12.40;73.04;98509.75;4956323;29;20039;-72
2021/10/05 02:56:23;;;;;;;40.15;26.25;;;;;;;12.39;72.58;98510.03;4956815;29;20110;-71
2021/10/05 02:58:49;;;;;;;44.60;27.67;;;;;;;12.38;72.55;98506.50;4956683;29;20143;-71
2021/10/05 03:01:14;;;;;;;41.50;26.70;;;;;;;12.38;72.99;98505.66;4956913;29;20044;-72
2021/10/05 03:03:40;;;;;;;43.50;26.77;;;;;;;12.38;73.12;98497.41;4956865;29;20043;-71
2021/10/05 03:06:05;;;;;;;40.83;27.15;;;;;;;12.39;72.78;98493.53;4956847;29;20035;-72
2021/10/05 03:08:31;;;;;;;39.95;26.90;;;;;;;12.39;73.01;98491.63;4955960;29;20064;-71
2021/10/05 03:10:58;;;;;;;44.45;29.02;;;;;;;12.38;73.12;98487.25;4939463;29;20042;-72
2021/10/05 03:13:24;;;;;;;41.75;28.40;;;;;;;12.39;72.96;98488.03;4953376;29;20086;-72
2021/10/05 03:15:49;;;;;;;44.95;28.80;;;;;;;12.36;73.54;98490.28;4956531;29;20050;-72
2021/10/05 03:18:15;;;;;;;45.38;28.85;;;;;;;12.36;73.04;98493.03;4956177;29;20105;-72
2021/10/05 03:20:40;;;;;;;43.20;27.63;;;;;;;12.38;73.59;98489.16;4956403;29;20031;-72
2021/10/05 03:23:05;;;;;;;42.17;27.40;;;;;;;12.38;73.56;98484.50;4956348;29;20118;-72
2021/10/05 03:25:31;;;;;;;43.10;26.73;;;;;;;12.39;73.35;98482.53;4938630;29;20481;-72
2021/10/05 03:27:56;;;;;;;39.35;24.92;;;;;;;12.39;73.50;98486.13;4956460;29;20491;-72
2021/10/05 03:30:22;;;;;;;38.88;26.35;;;;;;;12.40;73.59;98486.91;4955737;29;20027;-71
2021/10/05 03:32:47;;;;;;;39.85;24.90;;;;;;;12.39;73.56;98486.13;4956179;29;20031;-72
2021/10/05 03:35:13;;;;;;;35.00;23.88;;;;;;;12.39;73.87;98485.28;4955834;29;20043;-71
2021/10/05 03:37:39;;;;;;;37.40;25.13;;;;;;;12.39;73.68;98477.88;4956152;29;20031;-72
2021/10/05 03:40:06;;;;;;;40.63;25.95;;;;;;;12.39;73.61;98469.63;4955846;29;20030;-71
2021/10/05 03:42:32;;;;;;;41.20;27.38;;;;;;;12.40;73.58;98476.75;4955729;29;20069;-72
2021/10/05 03:44:58;;;;;;;41.95;27.25;;;;;;;12.40;73.70;98475.91;4954976;29;20443;-71
2021/10/05 03:47:24;;;;;;;42.05;27.10;;;;;;;12.41;73.59;98472.03;4938010;29;20027;-71
2021/10/05 03:49:49;;;;;;;45.13;28.25;;;;;;;12.40;73.41;98467.66;4954854;29;20038;-72
2021/10/05 03:52:15;;;;;;;40.72;27.60;;;;;;;12.39;73.42;98458.63;4954544;29;20023;-71
2021/10/05 03:54:42;;;;;;;41.72;28.13;;;;;;;12.40;73.59;98463.00;4954977;29;20102;-72
2021/10/05 03:57:08;;;;;;;45.20;29.58;;;;;;;12.39;73.76;98458.63;4955050;29;20042;-71
2021/10/05 03:59:33;;;;;;;46.25;28.48;;;;;;;12.39;73.53;98453.13;4954557;29;20469;-72
2021/10/05 04:01:59;;;;;;;41.55;28.42;;;;;;;12.40;73.56;98464.91;4954861;29;20024;-72
2021/10/05 04:04:24;;;;;;;45.35;29.05;;;;;;;12.38;73.32;98456.97;4953386;28;20030;-72
2021/10/05 04:06:50;;;;;;;41.45;27.60;;;;;;;12.33;73.22;98457.91;4954766;29;20028;-73
2021/10/05 04:09:15;;;;;;;40.78;26.55;;;;;;;12.30;73.20;98452.22;4954126;29;20047;-72
2021/10/05 04:11:41;;;;;;;42.03;27.40;;;;;;;12.29;73.54;98453.31;4954055;29;20031;-73
2021/10/05 04:14:06;;;;;;;39.60;25.70;;;;;;;12.29;73.82;98458.81;4954614;29;20498;-72
2021/10/05 04:16:32;;;;;;;40.88;26.13;;;;;;;12.27;73.17;98456.38;4954344;29;20502;-72
2021/10/05 04:18:58;;;;;;;38.60;24.60;;;;;;;12.25;73.37;98453.13;4954192;29;20035;-72
2021/10/05 04:21:23;;;;;;;35.10;23.63;;;;;;;12.25;73.71;98457.81;4936842;29;20046;-73
2021/10/05 04:23:49;;;;;;;35.92;23.80;;;;;;;12.24;73.66;98464.44;4953710;29;20062;-72
2021/10/05 04:26:15;;;;;;;34.83;23.40;;;;;;;12.24;73.73;98461.69;4954315;29;20388;-72
2021/10/05 04:28:41;;;;;;;33.63;23.73;;;;;;;12.24;73.52;98464.44;4954513;29;20504;-72
2021/10/05 04:31:06;;;;;;;36.85;23.33;;;;;;;12.24;73.25;98458.94;4953917;29;20058;-72
2021/10/05 04:33:32;;;;;;;35.33;22.48;;;;;;;12.24;73.62;98456.97;4936410;29;20650;-72
2021/10/05 04:35:58;;;;;;;37.75;23.88;;;;;;;12.24;73.89;98456.97;4953914;29;20090;-72
2021/10/05 04:38:24;;;;;;;36.95;23.00;;;;;;;12.24;73.92;98456.97;4953637;29;20042;-72
2021/10/05 04:40:50;;;;;;;38.10;22.65;;;;;;;12.23;73.87;98446.31;4954280;29;20035;-72
2021/10/05 04:43:17;;;;;;;35.85;22.92;;;;;;;12.23;73.56;98449.06;4954952;29;20032;-72
2021/10/05 04:45:44;;;;;;;35.13;22.70;;;;;;;12.21;73.82;98452.13;4954873;29;20095;-72
2021/10/05 04:48:09;;;;;;;38.95;22.92;;;;;;;12.23;74.27;98457.31;4954351;29;20078;-72
2021/10/05 04:50:35;;;;;;;38.20;24.23;;;;;;;12.21;73.73;98452.91;4953364;29;20027;-72
2021/10/05 04:53:01;;;;;;;35.80;23.52;;;;;;;12.22;73.84;98456.50;4953617;29;20098;-72
2021/10/05 04:55:27;;;;;;;35.28;22.13;;;;;;;12.20;73.92;98445.00;4952369;29;20148;-72
2021/10/05 04:57:53;;;;;;;35.60;22.88;;;;;;;12.21;74.08;98452.91;4953865;29;20111;-72
2021/10/05 05:00:19;;;;;;;37.00;22.20;;;;;;;12.20;74.17;98451.28;4953831;29;20464;-72
2021/10/05 05:02:44;;;;;;;34.28;22.80;;;;;;;12.22;74.35;98445.50;4954331;29;20038;-72
2021/10/05 05:05:10;;;;;;;42.97;25.05;;;;;;;12.23;74.01;98441.59;4954296;29;20043;-72
2021/10/05 05:07:36;;;;;;;37.03;25.10;;;;;;;12.23;74.36;98438.06;4954500;29;20031;-72
2021/10/05 05:10:04;;;;;;;38.28;25.67;;;;;;;12.24;74.61;98439.69;4953889;29;20043;-72
2021/10/05 05:12:30;;;;;;;34.72;23.52;;;;;;;12.24;74.32;98436.94;4953887;29;20027;-72
2021/10/05 05:14:56;;;;;;;36.15;24.23;;;;;;;12.25;74.67;98441.31;4953023;28;20051;-72
2021/10/05 05:17:21;;;;;;;35.35;23.05;;;;;;;12.26;74.31;98435.50;4953580;29;20023;-72
2021/10/05 05:19:47;;;;;;;34.85;23.40;;;;;;;12.28;74.70;98430.50;4953548;29;20054;-72
2021/10/05 05:22:13;;;;;;;37.80;24.70;;;;;;;12.30;74.78;98439.25;4953052;29;20071;-71
2021/10/05 05:24:38;;;;;;;36.38;24.80;;;;;;;12.31;74.57;98423.59;4953035;29;20515;-72
2021/10/05 05:27:04;;;;;;;36.13;26.50;;;;;;;12.34;74.42;98428.47;4953908;29;20352;-71
2021/10/05 05:29:30;;;;;;;39.33;25.92;;;;;;;12.35;74.31;98425.41;4953517;29;20034;-72
2021/10/05 05:31:58;;;;;;;37.05;25.00;;;;;;;12.39;75.12;98430.28;4952846;29;20038;-71
2021/10/05 05:34:24;;;;;;;33.35;22.88;;;;;;;12.41;74.84;98433.53;4952639;29;20031;-72
2021/10/05 05:36:50;;;;;;;34.40;22.20;;;;;;;12.44;74.64;98422.72;4953104;29;20031;-72
2021/10/05 05:39:16;;;;;;;30.23;21.35;;;;;;;12.46;74.83;98431.47;4953617;29;20057;-72
2021/10/05 05:41:45;;;;;;;32.13;21.95;;;;;;;12.51;74.79;98422.31;4953109;29;20106;-72
2021/10/05 05:44:14;;;;;;;31.65;20.33;;;;;;;12.56;75.37;98421.38;4935533;29;20067;-72
2021/10/05 05:46:40;;;;;;;28.58;19.27;;;;;;;12.60;74.26;98414.13;4953708;29;20050;-72
2021/10/05 05:49:06;;;;;;;26.77;17.70;;;;;;;12.62;75.51;98418.22;4953447;29;20380;-72
2021/10/05 05:51:31;;;;;;;29.20;19.48;;;;;;;12.65;74.77;98419.50;4935940;29;20027;-72
2021/10/05 05:53:57;;;;;;;31.60;20.55;;;;;;;12.70;74.61;98416.66;4952593;29;20039;-72
2021/10/05 05:56:22;;;;;;;27.90;18.92;;;;;;;12.75;74.61;98419.28;4952569;29;20031;-72
2021/10/05 05:58:49;;;;;;;30.60;20.42;;;;;;;12.81;75.35;98422.72;4952585;29;20031;-72
2021/10/05 06:01:16;;;;;;;30.73;20.30;;;;;;;12.85;74.84;98412.72;4951710;29;20118;-72
2021/10/05 06:03:41;;;;;;;31.05;20.13;;;;;;;12.92;75.64;98415.84;4952752;29;20035;-72
2021/10/05 06:06:07;;;;;;;29.02;19.38;;;;;;;12.99;75.23;98422.84;4953195;29;20034;-71
2021/10/05 06:08:33;;;;;;;26.05;17.92;;;;;;;13.04;75.23;98418.03;4952459;29;20047;-72
2021/10/05 06:10:58;;;;;;;26.85;17.65;;;;;;;13.11;75.56;98423.06;4952778;29;20031;-72
2021/10/05 06:13:24;;;;;;;24.92;17.02;;;;;;;13.18;75.44;98419.91;4951927;29;20568;-72
2021/10/05 06:15:50;;;;;;;28.17;17.33;;;;;;;13.23;74.88;98412.31;4952798;29;20074;-72
2021/10/05 06:18:15;;;;;;;25.10;16.85;;;;;;;13.29;74.66;98420.44;4935113;29;20472;-71
2021/10/05 06:20:41;;;;;;;27.65;17.33;;;;;;;13.33;75.00;98415.94;4952502;29;20456;-71
2021/10/05 06:23:06;;;;;;;26.52;15.35;;;;;;;13.40;74.76;98419.84;4951774;29;20041;-72
2021/10/05 06:25:32;;;;;;;21.08;15.27;;;;;;;13.48;74.94;98412.00;4952562;28;20038;-72
2021/10/05 06:27:59;;;;;;;23.67;16.27;;;;;;;13.56;74.74;98411.22;4952348;29;20713;-72
2021/10/05 06:30:26;;;;;;;23.45;16.63;;;;;;;13.62;74.81;98406.38;4952190;29;20031;-72
2021/10/05 06:32:55;;;;;;;25.75;16.40;;;;;;;13.69;74.78;98403.97;4951850;29;20041;-72
2021/10/05 06:35:26;;;;;;;26.98;16.27;;;;;;;13.76;74.84;98406.25;4933165;29;20476;-72
2021/10/05 06:37:58;;;;;;;23.17;15.32;;;;;;;13.81;74.55;98404.19;4952441;29;20039;-72
2021/10/05 06:40:26;;;;;;;22.25;14.80;;;;;;;13.89;74.66;98405.34;4952403;29;20155;-72
2021/10/05 06:42:52;;;;;;;22.67;14.70;;;;;;;13.97;74.35;98409.25;4952295;29;20491;-72
2021/10/05 06:45:18;;;;;;;23.73;15.65;;;;;;;14.04;74.65;98401.31;4951702;29;20035;-72
2021/10/05 06:47:44;;;;;;;23.52;14.75;;;;;;;14.12;74.16;98399.72;4953042;29;20031;-72
2021/10/05 06:50:10;;;;;;;22.13;15.77;;;;;;;14.22;74.42;98404.94;4951952;29;20027;-72
2021/10/05 06:52:35;;;;;;;21.35;14.82;;;;;;;14.27;74.30;98395.69;4934162;29;20062;-72
2021/10/05 06:55:01;;;;;;;21.60;14.20;;;;;;;14.35;74.00;98400.41;4951710;29;20042;-71
2021/10/05 06:57:26;;;;;;;21.52;14.20;;;;;;;14.45;74.20;98393.78;4950302;29;20436;-71
2021/10/05 06:59:52;;;;;;;21.50;14.88;;;;;;;14.53;74.66;98394.91;4934940;29;20027;-71
2021/10/05 07:02:17;;;;;;;23.75;15.38;;;;;;;14.61;74.12;98393.28;4951077;29;20035;-72
2021/10/05 07:04:43;;;;;;;23.20;14.52;;;;;;;14.68;73.86;98393.59;4950830;29;20039;-71
2021/10/05 07:07:08;;;;;;;23.48;15.07;;;;;;;14.75;73.96;98396.72;4949090;29;20067;-73
2021/10/05 07:09:34;;;;;;;21.80;14.43;;;;;;;14.85;73.78;98388.13;4943929;29;20130;-72
2021/10/05 07:12:00;;;;;;;17.90;12.98;;;;;;;14.93;73.99;98383.72;4948531;29;20031;-73
2021/10/05 07:14:26;;;;;;;19.65;13.57;;;;;;;15.03;73.43;98382.56;4949044;29;20031;-71
2021/10/05 07:16:51;;;;;;;18.85;12.82;;;;;;;15.13;73.48;98373.94;4949094;29;20055;-72
2021/10/05 07:19:17;;;;;;;19.88;13.43;;;;;;;15.23;73.66;98378.28;4949956;29;20420;-73
2021/10/05 07:21:42;;;;;;;20.70;12.30;;;;;;;15.33;73.57;98368.81;4950605;29;20019;-72
2021/10/05 07:24:08;;;;;;;23.65;13.10;;;;;;;15.43;73.01;98364.91;4949536;29;20042;-72
2021/10/05 07:26:33;;;;;;;18.17;11.77;;;;;;;15.52;73.12;98370.38;4950321;29;20408;-72
2021/10/05 07:28:59;;;;;;;18.42;12.10;;;;;;;15.60;73.09;98375.88;4950519;29;20396;-72
2021/10/05 07:31:25;;;;;;;18.10;11.98;;;;;;;15.70;72.70;98363.63;4950815;29;20110;-72
2021/10/05 07:33:50;;;;;;;15.93;12.02;;;;;;;15.80;72.68;98361.63;4949759;29;20031;-72
2021/10/05 07:36:20;;;;;;;15.85;11.73;;;;;;;15.92;72.58;98364.53;4944853;28;20027;-72
2021/10/05 07:38:46;;;;;;;16.40;12.05;;;;;;;16.04;72.67;98361.03;4950955;28;20039;-71
2021/10/05 07:41:11;;;;;;;15.15;10.88;;;;;;;16.16;72.39;98374.13;4952072;29;20376;-72
2021/10/05 07:43:37;;;;;;;14.60;10.93;;;;;;;16.26;72.21;98364.66;4949245;29;20110;-71
2021/10/05 07:46:03;;;;;;;15.95;11.68;;;;;;;16.37;72.22;98365.84;4950949;29;20031;-71
2021/10/05 07:48:30;;;;;;;15.73;12.02;;;;;;;16.48;72.11;98369.84;4951092;29;20054;-72
2021/10/05 07:50:56;;;;;;;18.92;12.73;;;;;;;16.59;71.73;98364.69;4952033;29;20047;-71
2021/10/05 07:53:21;;;;;;;22.05;15.57;;;;;;;16.72;71.49;98360.03;4951776;29;20027;-72
2021/10/05 07:56:24;;;;;;;18.83;12.52;;;;;;;16.85;71.56;98355.38;4951029;29;20086;-72
2021/10/05 07:58:50;;;;;;;14.50;11.15;;;;;;;17.00;71.36;98355.88;4951661;29;20503;-71
2021/10/05 08:01:15;;;;;;;17.67;11.65;;;;;;;17.11;71.21;98348.75;4952526;29;20027;-72
2021/10/05 08:03:41;;;;;;;16.33;10.32;;;;;;;17.24;70.82;98344.88;4952787;29;20037;-73
2021/10/05 08:06:06;;;;;;;14.23;10.00;;;;;;;17.35;70.74;98345.22;4932586;28;20037;-72
2021/10/05 08:08:32;;;;;;;16.83;9.85;;;;;;;17.47;70.28;98338.88;4951668;28;20049;-72
2021/10/05 08:10:58;;;;;;;13.65;9.60;;;;;;;17.61;70.07;98332.19;4953350;29;20037;-70
2021/10/05 08:13:23;;;;;;;16.05;9.02;;;;;;;17.72;69.66;98327.81;4952662;29;20059;-73
2021/10/05 08:15:49;;;;;;;14.10;9.02;;;;;;;17.83;69.37;98323.41;4952099;28;20114;-72
2021/10/05 08:18:15;;;;;;;15.32;9.82;;;;;;;17.92;69.30;98322.47;4951016;29;20377;-72
2021/10/05 08:20:42;;;;;;;12.07;8.90;;;;;;;18.00;69.10;98305.72;4951996;29;20042;-72
2021/10/05 08:23:07;;;;;;;15.65;9.63;;;;;;;18.13;68.18;98306.53;4952513;29;20035;-72
2021/10/05 08:25:33;;;;;;;17.23;9.95;;;;;;;18.22;68.46;98298.06;4952595;29;20062;-72
2021/10/05 08:27:59;;;;;;;13.85;8.13;;;;;;;18.30;67.94;98302.66;4954011;29;20086;-73
2021/10/05 08:30:24;;;;;;;12.20;9.05;;;;;;;18.38;67.80;98292.56;4953265;29;20484;-72
2021/10/05 08:32:51;;;;;;;12.10;8.90;;;;;;;18.43;67.42;98295.09;4953655;29;20555;-72
2021/10/05 08:35:17;;;;;;;12.57;9.18;;;;;;;18.55;67.01;98298.97;4940550;29;20101;-70
2021/10/05 08:37:42;;;;;;;12.18;9.07;;;;;;;18.63;66.95;98302.75;4950678;29;20035;-72
2021/10/05 08:40:11;;;;;;;12.82;9.15;;;;;;;18.72;66.81;98292.31;4951274;29;20031;-73
2021/10/05 08:42:37;;;;;;;14.43;9.10;;;;;;;18.81;66.77;98294.91;4951297;29;20067;-72
2021/10/05 08:45:04;;;;;;;12.07;9.30;;;;;;;18.89;66.70;98285.63;4951929;29;20035;-72
2021/10/05 08:47:30;;;;;;;12.23;8.70;;;;;;;18.99;65.33;98279.53;4951191;29;20130;-72
2021/10/05 08:49:56;;;;;;;12.20;8.05;;;;;;;19.14;65.94;98268.81;4952013;28;20475;-71
2021/10/05 08:52:22;;;;;;;12.13;8.68;;;;;;;19.25;65.54;98281.00;4951496;29;20824;-71
2021/10/05 08:54:47;;;;;;;10.65;8.18;;;;;;;19.37;65.37;98279.28;4950692;29;20062;-72
2021/10/05 08:57:13;;;;;;;16.88;8.07;;;;;;;19.51;64.41;98278.84;4951418;29;20035;-72
2021/10/05 08:59:39;;;;;;;12.18;8.40;;;;;;;19.59;64.36;98278.66;4950969;29;20027;-72
2021/10/05 09:02:12;;;;;;;9.93;7.80;;;;;;;19.71;64.79;98274.94;4933988;29;20431;-71
2021/10/05 09:04:37;;;;;;;11.77;8.23;;;;;;;19.85;63.41;98268.09;4950983;29;20079;-73
2021/10/05 09:07:24;;;;;;;13.38;8.98;;;;;;;19.96;62.99;98269.19;4951455;29;20031;-72
2021/10/05 09:09:55;;;;;;;11.25;7.72;;;;;;;20.10;62.56;98268.69;4950370;29;20047;-72
2021/10/05 09:12:23;;;;;;;10.55;7.60;;;;;;;20.21;61.09;98258.56;4949347;29;20251;-73
2021/10/05 09:14:48;;;;;;;9.98;7.40;;;;;;;20.32;58.66;98264.38;4947851;29;20046;-73
2021/10/05 09:17:25;;;;;;;13.10;7.57;;;;;;;20.39;58.88;98260.91;4950027;29;20031;-73
2021/10/05 09:19:52;;;;;;;11.10;7.30;;;;;;;20.48;58.68;98263.47;4935981;29;20097;-73
2021/10/05 09:22:22;;;;;;;10.77;7.70;;;;;;;20.56;59.97;98261.66;4952688;29;20039;-73
2021/10/05 09:24:50;;;;;;;11.23;7.43;;;;;;;20.67;57.94;98251.50;4952476;29;20042;-73
2021/10/05 09:27:16;;;;;;;13.02;7.55;;;;;;;20.74;57.96;98253.63;4952638;29;20086;-73
2021/10/05 09:29:43;;;;;;;9.40;7.57;;;;;;;20.82;57.01;98236.69;4952469;29;20039;-73
2021/10/05 09:32:14;;;;;;;10.00;7.05;;;;;;;20.97;53.69;98234.16;4952816;29;20472;-74
2021/10/05 09:34:43;;;;;;;15.77;6.88;;;;;;;21.05;54.25;98247.03;4952296;29;20035;-81
2021/10/05 09:37:19;;;;;;;12.10;7.32;;;;;;;21.15;53.58;98253.16;4951686;29;20049;-81
2021/10/05 09:39:47;;;;;;;12.05;6.80;;;;;;;21.24;53.75;98250.94;4951089;29;20027;-79
2021/10/05 09:42:23;;;;;;;11.50;6.65;;;;;;;21.35;50.23;98242.75;4951961;29;20483;-76
2021/10/05 09:44:50;;;;;;;10.90;6.57;;;;;;;21.46;49.26;98256.84;4951437;29;20119;-76
2021/10/05 09:47:16;;;;;;;9.10;6.47;;;;;;;21.54;49.66;98253.00;4951530;29;20031;-77
2021/10/05 09:49:44;;;;;;;11.73;7.15;;;;;;;21.63;50.26;98249.97;4951649;29;20027;-76
2021/10/05 09:52:12;;;;;;;11.20;6.72;;;;;;;21.69;48.92;98246.50;4952231;29;20058;-79
2021/10/05 09:54:38;;;;;;;10.32;6.57;;;;;;;21.80;48.11;98234.69;4952390;29;20035;-79
2021/10/05 09:57:04;;;;;;;12.32;7.18;;;;;;;21.88;49.02;98236.38;4952572;29;20487;-81
2021/10/05 09:59:29;;;;;;;13.85;6.63;;;;;;;21.96;47.22;98235.28;4949180;29;20027;-81
2021/10/05 10:01:55;;;;;;;12.15;7.07;;;;;;;22.01;46.25;98232.16;4951531;28;20031;-81
2021/10/05 10:04:25;;;;;;;9.80;6.45;;;;;;;22.08;47.56;98227.88;4951382;29;20445;-80
2021/10/05 10:06:52;;;;;;;11.38;6.40;;;;;;;22.11;47.52;98241.88;4951179;29;20035;-81
2021/10/05 10:09:18;;;;;;;12.70;7.00;;;;;;;22.19;47.00;98234.41;4933503;29;20051;-81
2021/10/05 10:11:43;;;;;;;9.93;6.47;;;;;;;22.27;45.92;98235.28;4952579;29;20033;-81
2021/10/05 10:14:09;;;;;;;10.93;6.50;;;;;;;22.34;46.31;98245.72;4934853;29;20508;-80
2021/10/05 10:16:35;;;;;;;11.20;6.75;;;;;;;22.40;46.33;98245.03;4951469;29;20217;-78
2021/10/05 10:19:04;;;;;;;10.05;6.43;;;;;;;22.46;46.49;98239.94;4951767;29;20499;-79
2021/10/05 10:21:37;;;;;;;14.63;7.05;;;;;;;22.53;45.69;98245.59;4950729;29;20512;-78
2021/10/05 10:24:10;;;;;;;11.40;6.40;;;;;;;22.55;46.37;98246.03;4942543;29;20035;-81
2021/10/05 10:26:40;;;;;;;9.50;6.47;;;;;;;22.61;46.53;98249.28;4950919;29;20039;-73
2021/10/05 10:29:05;;;;;;;;;;;;;;;22.68;46.22;98240.16;4951066;29;20495;-74
2021/10/05 10:31:34;;;;;;;10.68;6.57;;;;;;;22.75;45.29;98235.44;4940018;29;19977;-74
2021/10/05 10:34:00;;;;;;;9.02;6.63;;;;;;;22.82;44.63;98245.09;4948470;29;20122;-75
2021/10/05 10:36:40;;;;;;;9.05;6.32;;;;;;;22.85;46.69;98239.53;4949653;29;20106;-75
2021/10/05 10:39:18;;;;;;;10.02;6.63;;;;;;;22.97;44.72;98230.06;4946186;29;20065;-75
2021/10/05 10:41:59;;;;;;;12.60;6.63;;;;;;;23.01;44.29;98236.50;4948425;29;20218;-76
2021/10/05 10:44:31;;;;;;;10.13;6.60;;;;;;;23.05;45.64;98234.53;4948454;29;20035;-75
2021/10/05 10:47:24;;;;;;;13.00;6.85;;;;;;;23.15;44.62;98227.41;4949240;29;20039;-77
2021/10/05 10:50:10;;;;;;;8.23;6.63;;;;;;;23.24;44.55;98232.69;4926329;29;20031;-78
2021/10/05 10:52:38;;;;;;;8.80;6.68;;;;;;;23.29;44.26;98226.75;4948659;29;20042;-75
2021/10/05 10:55:06;;;;;;;12.63;6.55;;;;;;;23.34;43.67;98231.19;4948659;29;20020;-76
2021/10/05 10:57:39;;;;;;;9.23;5.97;;;;;;;23.38;42.48;98228.41;4946589;29;20062;-77
2021/10/05 11:00:16;;;;;;;9.63;5.90;;;;;;;23.42;43.01;98207.69;4940984;29;20031;-76
2021/10/05 11:02:47;;;;;;;7.95;6.68;;;;;;;23.47;43.58;98220.50;4947575;29;20063;-75
2021/10/05 11:05:14;;;;;;;11.85;7.10;;;;;;;23.52;43.84;98222.94;4949668;29;20440;-75
2021/10/05 11:07:40;;;;;;;10.57;6.60;;;;;;;23.59;43.44;98209.00;4944246;29;20035;-74
2021/10/05 11:10:07;;;;;;;10.70;6.60;;;;;;;23.65;43.33;98212.22;4947490;28;20106;-74
2021/10/05 11:12:36;;;;;;;8.98;6.60;;;;;;;23.72;43.23;98203.88;4951523;28;20059;-76
2021/10/05 11:15:02;;;;;;;9.00;6.67;;;;;;;23.81;42.05;98202.72;4934785;29;20068;-74
2021/10/05 11:17:32;;;;;;;10.88;6.18;;;;;;;23.86;43.37;98199.50;4953479;29;20286;-76